createdAt,value
2019-02-20T00:00:23.703Z,18.25
2019-02-20T00:01:42.506Z,17.10
2019-02-20T00:02:58.808Z,18.23
2019-02-20T00:04:15.961Z,18.15
2019-02-20T00:05:32.495Z,18.10
2019-02-20T00:06:49.299Z,17.55
2019-02-20T00:08:06.183Z,17.55
2019-02-20T00:09:22.686Z,17.40
2019-02-20T00:10:38.989Z,16.73
2019-02-20T00:11:55.589Z,18.55
2019-02-20T00:13:12.489Z,19.70
2019-02-20T00:14:28.874Z,19.95
2019-02-20T00:15:44.056Z,21.40
2019-02-20T00:17:08.221Z,21.15
2019-02-20T00:18:25.369Z,22.42
2019-02-20T00:19:42.780Z,19.65
2019-02-20T00:20:59.321Z,21.60
2019-02-20T00:22:15.696Z,23.65
2019-02-20T00:23:32.971Z,21.85
2019-02-20T00:24:50.185Z,22.90
2019-02-20T00:26:06.655Z,21.68
2019-02-20T00:27:24.513Z,20.60
2019-02-20T00:28:41.344Z,22.25
2019-02-20T00:29:58.508Z,23.20
2019-02-20T00:31:15.076Z,23.02
2019-02-20T00:32:31.508Z,23.35
2019-02-20T00:33:48.476Z,22.90
2019-02-20T00:35:05.404Z,21.52
2019-02-20T00:36:21.973Z,24.45
2019-02-20T00:37:39.141Z,23.65
2019-02-20T00:38:55.438Z,24.18
2019-02-20T00:40:11.975Z,24.32
2019-02-20T00:41:29.441Z,25.17
2019-02-20T00:42:46.348Z,22.80
2019-02-20T00:44:21.654Z,22.07
2019-02-20T00:45:57.197Z,23.18
2019-02-20T00:47:32.500Z,20.48
2019-02-20T00:48:56.862Z,20.08
2019-02-20T00:50:14.217Z,20.70
2019-02-20T00:53:17.314Z,19.55
2019-02-20T00:54:33.993Z,19.23
2019-02-20T00:55:50.657Z,21.57
2019-02-20T00:57:07.140Z,18.17
2019-02-20T00:58:22.430Z,19.82
2019-02-20T00:59:46.575Z,19.55
2019-02-20T01:01:03.536Z,20.88
2019-02-20T01:02:19.909Z,22.00
2019-02-20T01:03:36.662Z,20.48
2019-02-20T01:04:53.189Z,21.35
2019-02-20T01:06:09.611Z,20.10
2019-02-20T01:07:26.301Z,22.45
2019-02-20T01:08:42.789Z,22.20
2019-02-20T01:09:59.234Z,22.25
2019-02-20T01:11:15.628Z,22.32
2019-02-20T01:12:32.103Z,23.98
2019-02-20T01:13:48.605Z,22.17
2019-02-20T01:15:05.286Z,22.80
2019-02-20T01:16:24.501Z,24.82
2019-02-20T01:17:42.158Z,23.35
2019-02-20T01:18:58.560Z,22.48
2019-02-20T01:20:15.048Z,21.45
2019-02-20T01:21:31.640Z,20.90
2019-02-20T01:22:48.070Z,21.90
2019-02-20T01:24:04.358Z,20.20
2019-02-20T01:25:20.880Z,18.98
2019-02-20T01:26:38.148Z,19.27
2019-02-20T01:27:54.781Z,19.90
2019-02-20T01:29:11.276Z,19.67
2019-02-20T01:30:28.056Z,19.55
2019-02-20T01:31:44.544Z,18.62
2019-02-20T01:33:01.775Z,19.48
2019-02-20T01:34:18.969Z,18.42
2019-02-20T01:35:35.369Z,19.45
2019-02-20T01:36:51.718Z,19.17
2019-02-20T01:38:08.642Z,21.50
2019-02-20T01:39:25.757Z,19.92
2019-02-20T01:40:42.844Z,20.50
2019-02-20T01:41:59.520Z,18.98
2019-02-20T01:43:15.825Z,19.32
2019-02-20T01:44:32.527Z,19.40
2019-02-20T01:45:48.916Z,21.68
2019-02-20T01:47:06.477Z,22.85
2019-02-20T01:48:23.658Z,21.02
2019-02-20T01:49:40.177Z,20.30
2019-02-20T01:50:57.150Z,21.00
2019-02-20T01:52:13.534Z,20.50
2019-02-20T01:53:29.841Z,19.10
2019-02-20T01:54:46.757Z,20.10
2019-02-20T01:56:03.361Z,20.23
2019-02-20T01:57:20.290Z,19.30
2019-02-20T01:58:36.820Z,19.30
2019-02-20T01:59:53.657Z,19.67
2019-02-20T02:01:10.849Z,20.82
2019-02-20T02:02:27.383Z,20.70
2019-02-20T02:03:43.671Z,22.62
2019-02-20T02:05:00.220Z,23.07
2019-02-20T02:06:16.774Z,21.27
2019-02-20T02:07:33.341Z,21.87
2019-02-20T02:08:49.753Z,21.30
2019-02-20T02:10:06.817Z,19.85
2019-02-20T02:11:23.328Z,20.15
2019-02-20T02:12:39.925Z,21.27
2019-02-20T02:13:56.363Z,21.90
2019-02-20T02:15:20.059Z,22.98
2019-02-20T02:16:31.321Z,21.65
2019-02-20T02:17:47.637Z,20.08
2019-02-20T02:19:04.201Z,20.95
2019-02-20T02:20:21.205Z,21.40
2019-02-20T02:21:38.385Z,21.37
2019-02-20T02:22:54.689Z,20.80
2019-02-20T02:24:11.278Z,20.40
2019-02-20T02:25:28.353Z,20.20
2019-02-20T02:26:44.879Z,20.70
2019-02-20T02:28:01.549Z,18.80
2019-02-20T02:29:17.997Z,19.12
2019-02-20T02:30:34.644Z,20.65
2019-02-20T02:31:51.299Z,19.70
2019-02-20T02:33:08.457Z,19.30
2019-02-20T02:34:26.361Z,20.55
2019-02-20T02:35:43.097Z,21.17
2019-02-20T02:36:59.596Z,22.65
2019-02-20T02:38:16.323Z,20.92
2019-02-20T02:39:32.826Z,21.70
2019-02-20T02:40:47.968Z,21.25
2019-02-20T02:42:12.148Z,21.97
2019-02-20T02:43:28.448Z,23.67
2019-02-20T02:44:45.850Z,20.82
2019-02-20T02:46:02.927Z,24.92
2019-02-20T02:47:21.560Z,23.12
2019-02-20T02:48:38.123Z,23.40
2019-02-20T02:49:54.585Z,23.92
2019-02-20T02:51:11.609Z,23.25
2019-02-20T02:52:28.221Z,19.82
2019-02-20T02:53:44.525Z,21.15
2019-02-20T02:55:01.015Z,20.32
2019-02-20T02:56:18.212Z,21.07
2019-02-20T02:57:34.903Z,20.65
2019-02-20T02:58:52.074Z,20.48
2019-02-20T03:00:08.651Z,22.32
2019-02-20T03:01:25.102Z,21.68
2019-02-20T03:02:41.511Z,22.80
2019-02-20T03:03:57.971Z,18.82
2019-02-20T03:05:14.300Z,22.50
2019-02-20T03:06:31.034Z,21.87
2019-02-20T03:07:46.225Z,20.05
2019-02-20T03:09:10.393Z,19.62
2019-02-20T03:10:36.125Z,21.68
2019-02-20T03:11:52.606Z,19.80
2019-02-20T03:13:09.832Z,19.65
2019-02-20T03:14:26.376Z,20.00
2019-02-20T03:15:43.838Z,19.37
2019-02-20T03:17:00.247Z,21.50
2019-02-20T03:18:16.749Z,24.60
2019-02-20T03:19:33.084Z,23.98
2019-02-20T03:20:49.764Z,21.30
2019-02-20T03:22:06.281Z,20.35
2019-02-20T03:23:23.152Z,21.40
2019-02-20T03:24:39.860Z,20.55
2019-02-20T03:25:56.808Z,22.20
2019-02-20T03:27:13.147Z,24.90
2019-02-20T03:28:29.845Z,23.05
2019-02-20T03:29:47.148Z,22.13
2019-02-20T03:31:04.378Z,21.52
2019-02-20T03:32:20.821Z,20.88
2019-02-20T03:33:37.607Z,22.20
2019-02-20T03:34:54.073Z,22.70
2019-02-20T03:36:10.704Z,21.52
2019-02-20T03:37:27.392Z,21.27
2019-02-20T03:38:43.753Z,20.23
2019-02-20T03:40:00.802Z,19.82
2019-02-20T03:41:18.650Z,20.32
2019-02-20T03:42:35.465Z,20.90
2019-02-20T03:43:52.037Z,20.75
2019-02-20T03:45:08.664Z,22.58
2019-02-20T03:46:25.076Z,21.80
2019-02-20T03:47:41.944Z,20.20
2019-02-20T03:48:58.495Z,19.62
2019-02-20T03:50:14.941Z,19.62
2019-02-20T03:51:31.620Z,19.92
2019-02-20T03:52:47.978Z,19.25
2019-02-20T03:54:04.381Z,21.52
2019-02-20T03:55:21.035Z,20.75
2019-02-20T03:56:39.464Z,20.37
2019-02-20T03:57:56.731Z,18.17
2019-02-20T03:59:13.255Z,18.80
2019-02-20T04:00:29.929Z,20.08
2019-02-20T04:01:47.051Z,18.73
2019-02-20T04:03:03.424Z,20.12
2019-02-20T04:04:20.533Z,20.00
2019-02-20T04:05:36.948Z,20.10
2019-02-20T04:06:53.386Z,19.52
2019-02-20T04:08:09.736Z,21.25
2019-02-20T04:09:26.250Z,22.13
2019-02-20T04:10:42.840Z,19.98
2019-02-20T04:11:59.363Z,19.50
2019-02-20T04:13:15.897Z,20.72
2019-02-20T04:14:32.396Z,18.75
2019-02-20T04:15:48.728Z,19.40
2019-02-20T04:17:05.783Z,18.60
2019-02-20T04:18:22.673Z,19.60
2019-02-20T04:19:38.940Z,19.40
2019-02-20T04:20:55.553Z,19.45
2019-02-20T04:22:12.681Z,18.75
2019-02-20T04:23:29.034Z,20.70
2019-02-20T04:24:45.522Z,21.85
2019-02-20T04:26:02.683Z,20.10
2019-02-20T04:27:18.969Z,19.37
2019-02-20T04:28:35.629Z,19.00
2019-02-20T04:29:52.259Z,21.15
2019-02-20T04:31:09.417Z,20.45
2019-02-20T04:32:26.378Z,21.35
2019-02-20T04:33:42.701Z,19.07
2019-02-20T04:34:59.133Z,20.57
2019-02-20T04:36:15.806Z,21.37
2019-02-20T04:37:32.682Z,23.00
2019-02-20T04:38:49.104Z,21.82
2019-02-20T04:40:05.568Z,21.20
2019-02-20T04:41:20.816Z,21.25
2019-02-20T04:42:44.917Z,21.48
2019-02-20T04:44:02.190Z,21.93
2019-02-20T04:45:18.853Z,20.32
2019-02-20T04:46:35.289Z,20.52
2019-02-20T04:47:51.771Z,20.23
2019-02-20T04:49:08.496Z,20.32
2019-02-20T04:50:25.209Z,20.25
2019-02-20T04:51:41.893Z,19.87
2019-02-20T04:52:58.201Z,19.27
2019-02-20T04:54:15.418Z,19.15
2019-02-20T04:55:31.759Z,20.23
2019-02-20T04:56:48.615Z,17.85
2019-02-20T04:58:05.044Z,19.23
2019-02-20T04:59:22.257Z,19.48
2019-02-20T05:00:39.078Z,19.75
2019-02-20T05:01:55.597Z,17.07
2019-02-20T05:03:11.861Z,19.30
2019-02-20T05:04:28.729Z,17.67
2019-02-20T05:05:48.847Z,16.65
2019-02-20T05:07:05.141Z,21.10
2019-02-20T05:08:21.907Z,18.52
2019-02-20T05:09:39.778Z,17.98
2019-02-20T05:10:57.918Z,17.77
2019-02-20T05:12:14.430Z,16.87
2019-02-20T05:13:30.818Z,17.48
2019-02-20T05:14:47.280Z,19.00
2019-02-20T05:16:03.793Z,17.62
2019-02-20T05:17:21.035Z,18.25
2019-02-20T05:18:37.641Z,19.55
2019-02-20T05:19:53.996Z,19.57
2019-02-20T05:21:10.578Z,18.82
2019-02-20T05:22:27.900Z,18.12
2019-02-20T05:23:44.529Z,18.70
2019-02-20T05:25:01.244Z,19.07
2019-02-20T05:26:18.933Z,18.75
2019-02-20T05:27:35.294Z,19.45
2019-02-20T05:28:51.913Z,18.60
2019-02-20T05:30:08.200Z,19.00
2019-02-20T05:31:24.749Z,19.98
2019-02-20T05:32:41.244Z,18.62
2019-02-20T05:33:58.031Z,19.48
2019-02-20T05:35:14.497Z,18.92
2019-02-20T05:36:31.479Z,18.92
2019-02-20T05:37:48.138Z,18.57
2019-02-20T05:39:05.421Z,20.70
2019-02-20T05:40:24.777Z,18.55
2019-02-20T05:41:41.878Z,18.25
2019-02-20T05:42:59.112Z,17.98
2019-02-20T05:44:16.351Z,18.60
2019-02-20T05:45:33.988Z,17.95
2019-02-20T05:46:50.829Z,19.00
2019-02-20T05:48:08.119Z,18.45
2019-02-20T05:49:24.504Z,18.37
2019-02-20T05:50:40.997Z,18.70
2019-02-20T05:51:57.235Z,20.55
2019-02-20T05:53:13.853Z,19.07
2019-02-20T05:54:18.999Z,19.35
2019-02-20T05:55:24.105Z,21.35
2019-02-20T05:56:29.143Z,21.65
2019-02-20T05:57:36.415Z,20.72
2019-02-20T05:58:41.230Z,20.80
2019-02-20T05:59:46.378Z,19.98
2019-02-20T06:00:51.645Z,20.15
2019-02-20T06:01:56.681Z,20.60
2019-02-20T06:03:02.008Z,19.62
2019-02-20T06:04:08.182Z,20.30
2019-02-20T06:05:13.259Z,20.55
2019-02-20T06:06:18.402Z,21.85
2019-02-20T06:07:23.514Z,22.27
2019-02-20T06:08:28.546Z,20.97
2019-02-20T06:09:33.578Z,22.77
2019-02-20T06:10:38.711Z,21.77
2019-02-20T06:11:44.114Z,19.85
2019-02-20T06:12:49.214Z,19.17
2019-02-20T06:13:56.361Z,18.75
2019-02-20T06:15:01.453Z,19.23
2019-02-20T06:16:06.622Z,18.50
2019-02-20T06:17:11.634Z,19.98
2019-02-20T06:18:16.761Z,21.05
2019-02-20T06:19:21.893Z,17.70
2019-02-20T06:20:27.014Z,18.80
2019-02-20T06:21:32.133Z,19.65
2019-02-20T06:22:38.308Z,18.20
2019-02-20T06:23:43.438Z,19.02
2019-02-20T06:24:48.560Z,18.98
2019-02-20T06:25:53.706Z,18.87
2019-02-20T06:26:58.849Z,19.80
2019-02-20T06:28:04.192Z,20.62
2019-02-20T06:29:09.243Z,19.57
2019-02-20T06:30:14.385Z,19.20
2019-02-20T06:31:19.521Z,19.30
2019-02-20T06:32:24.571Z,18.00
2019-02-20T06:33:29.612Z,20.77
2019-02-20T06:34:34.758Z,20.92
2019-02-20T06:35:39.811Z,19.70
2019-02-20T06:36:44.873Z,20.15
2019-02-20T06:37:49.915Z,19.77
2019-02-20T06:38:55.063Z,19.12
2019-02-20T06:40:00.308Z,20.02
2019-02-20T06:41:05.546Z,20.15
2019-02-20T06:42:13.542Z,21.17
2019-02-20T06:43:18.589Z,20.70
2019-02-20T06:44:23.662Z,21.50
2019-02-20T06:45:28.769Z,21.68
2019-02-20T06:46:33.976Z,21.97
2019-02-20T06:47:39.084Z,21.17
2019-02-20T06:48:44.223Z,21.55
2019-02-20T06:49:49.250Z,22.42
2019-02-20T06:50:54.393Z,22.32
2019-02-20T06:51:59.504Z,23.12
2019-02-20T06:53:04.623Z,23.15
2019-02-20T06:54:09.796Z,22.32
2019-02-20T06:55:14.985Z,23.83
2019-02-20T06:56:20.576Z,24.80
2019-02-20T06:57:25.593Z,30.45
2019-02-20T06:58:30.961Z,27.07
2019-02-20T06:59:35.989Z,25.27
2019-02-20T07:00:41.109Z,24.80
2019-02-20T07:01:46.354Z,25.17
2019-02-20T07:02:51.475Z,25.57
2019-02-20T07:03:56.586Z,26.05
2019-02-20T07:05:35.469Z,25.32
2019-02-20T07:07:13.812Z,23.15
2019-02-20T07:08:54.459Z,22.87
2019-02-20T07:10:39.544Z,22.98
2019-02-20T07:12:14.418Z,22.00
2019-02-20T07:13:43.483Z,21.95
2019-02-20T07:15:29.554Z,22.13
2019-02-20T07:17:14.646Z,23.60
2019-02-20T07:18:54.645Z,23.20
2019-02-20T07:20:25.274Z,24.12
2019-02-20T07:22:23.680Z,23.83
2019-02-20T07:23:52.141Z,22.52
2019-02-20T07:25:28.048Z,22.85
2019-02-20T07:26:55.667Z,20.48
2019-02-20T07:28:30.012Z,21.05
2019-02-20T07:30:00.535Z,19.50
2019-02-20T07:31:07.083Z,18.60
2019-02-20T07:32:14.744Z,21.20
2019-02-20T07:33:19.880Z,19.75
2019-02-20T07:34:24.924Z,19.50
2019-02-20T07:35:30.033Z,19.45
2019-02-20T07:36:35.153Z,21.02
2019-02-20T07:37:40.276Z,18.27
2019-02-20T07:38:45.375Z,19.60
2019-02-20T07:39:51.768Z,18.77
2019-02-20T07:40:56.906Z,18.05
2019-02-20T07:42:02.038Z,17.45
2019-02-20T07:43:08.474Z,18.20
2019-02-20T07:44:13.578Z,17.55
2019-02-20T07:45:18.628Z,18.40
2019-02-20T07:46:23.824Z,19.65
2019-02-20T07:47:29.000Z,19.45
2019-02-20T07:48:34.156Z,19.17
2019-02-20T07:49:39.270Z,18.15
2019-02-20T07:50:44.406Z,17.82
2019-02-20T07:51:49.513Z,18.48
2019-02-20T07:52:54.628Z,19.45
2019-02-20T07:53:59.823Z,18.87
2019-02-20T07:55:12.910Z,18.57
2019-02-20T07:56:11.803Z,16.77
2019-02-20T07:57:16.933Z,17.57
2019-02-20T07:58:22.079Z,16.05
2019-02-20T07:59:27.177Z,15.72
2019-02-20T08:00:33.388Z,14.93
2019-02-20T08:01:38.604Z,15.90
2019-02-20T08:02:43.709Z,15.23
2019-02-20T08:03:48.846Z,16.07
2019-02-20T08:04:54.978Z,14.95
2019-02-20T08:06:00.151Z,14.55
2019-02-20T08:07:05.300Z,15.65
2019-02-20T08:08:10.442Z,14.55
2019-02-20T08:09:15.600Z,13.98
2019-02-20T08:10:20.790Z,13.80
2019-02-20T08:11:25.913Z,13.95
2019-02-20T08:12:31.035Z,14.00
2019-02-20T08:13:39.218Z,14.43
2019-02-20T08:14:42.901Z,14.15
2019-02-20T08:15:48.025Z,12.98
2019-02-20T08:16:53.172Z,12.10
2019-02-20T08:17:58.232Z,10.55
2019-02-20T08:19:03.396Z,11.22
2019-02-20T08:20:10.181Z,10.40
2019-02-20T08:21:15.373Z,12.03
2019-02-20T08:22:20.574Z,10.80
2019-02-20T08:23:25.760Z,10.75
2019-02-20T08:24:32.548Z,10.38
2019-02-20T08:25:37.661Z,10.82
2019-02-20T08:26:42.780Z,10.18
2019-02-20T08:27:47.881Z,10.30
2019-02-20T08:28:52.987Z,10.85
2019-02-20T08:29:58.124Z,10.80
2019-02-20T08:31:03.279Z,10.30
2019-02-20T08:32:08.368Z,10.93
2019-02-20T08:33:13.980Z,10.40
2019-02-20T08:34:19.046Z,10.58
2019-02-20T08:35:24.192Z,10.85
2019-02-20T08:36:29.320Z,10.70
2019-02-20T08:37:34.444Z,10.93
2019-02-20T08:38:39.555Z,10.58
2019-02-20T08:39:44.692Z,9.10
2019-02-20T08:40:49.753Z,10.03
2019-02-20T08:41:54.800Z,11.03
2019-02-20T08:42:59.826Z,10.40
2019-02-20T08:44:05.977Z,10.90
2019-02-20T08:45:11.334Z,11.38
2019-02-20T08:46:16.437Z,10.38
2019-02-20T08:47:21.557Z,10.95
2019-02-20T08:48:26.622Z,11.08
2019-02-20T08:49:31.647Z,10.23
2019-02-20T08:50:36.777Z,11.50
2019-02-20T08:51:41.868Z,10.50
2019-02-20T08:52:47.054Z,11.12
2019-02-20T08:53:52.186Z,11.10
2019-02-20T08:54:57.219Z,10.93
2019-02-20T08:56:02.317Z,11.03
2019-02-20T08:57:07.520Z,10.85
2019-02-20T08:58:12.678Z,11.85
2019-02-20T08:59:17.779Z,11.90
2019-02-20T09:00:22.825Z,11.10
2019-02-20T09:01:28.013Z,12.53
2019-02-20T09:02:33.126Z,11.45
2019-02-20T09:03:38.208Z,11.53
2019-02-20T09:04:43.237Z,10.95
2019-02-20T09:05:48.353Z,11.55
2019-02-20T09:06:53.359Z,12.78
2019-02-20T09:07:59.454Z,11.95
2019-02-20T09:09:06.391Z,11.40
2019-02-20T09:10:13.140Z,10.95
2019-02-20T09:11:18.209Z,10.88
2019-02-20T09:12:23.311Z,11.38
2019-02-20T09:13:28.425Z,10.28
2019-02-20T09:14:34.576Z,10.32
2019-02-20T09:15:39.655Z,11.25
2019-02-20T09:16:44.720Z,11.10
2019-02-20T09:17:49.747Z,11.83
2019-02-20T09:18:54.780Z,11.18
2019-02-20T09:19:59.938Z,11.15
2019-02-20T09:21:05.063Z,11.25
2019-02-20T09:22:10.122Z,11.73
2019-02-20T09:23:15.129Z,11.38
2019-02-20T09:24:20.266Z,11.05
2019-02-20T09:25:25.368Z,11.18
2019-02-20T09:26:30.504Z,11.50
2019-02-20T09:27:35.545Z,11.93
2019-02-20T09:28:40.638Z,11.33
2019-02-20T09:29:46.881Z,12.20
2019-02-20T09:30:51.941Z,11.05
2019-02-20T09:31:57.061Z,11.25
2019-02-20T09:33:02.240Z,13.03
2019-02-20T09:34:07.502Z,11.25
2019-02-20T09:35:12.951Z,11.57
2019-02-20T09:36:17.984Z,10.43
2019-02-20T09:37:23.167Z,10.50
2019-02-20T09:38:29.363Z,10.50
2019-02-20T09:39:36.176Z,9.78
2019-02-20T09:40:41.341Z,11.33
2019-02-20T09:41:46.484Z,11.45
2019-02-20T09:42:51.773Z,10.10
2019-02-20T09:43:56.837Z,11.28
2019-02-20T09:45:01.990Z,10.35
2019-02-20T09:46:08.180Z,10.98
2019-02-20T09:47:13.605Z,11.35
2019-02-20T09:48:19.768Z,11.93
2019-02-20T09:49:24.891Z,11.25
2019-02-20T09:50:29.944Z,10.65
2019-02-20T09:51:34.979Z,10.35
2019-02-20T09:52:40.053Z,10.53
2019-02-20T09:53:45.161Z,10.43
2019-02-20T09:54:50.224Z,10.18
2019-02-20T09:55:55.353Z,11.05
2019-02-20T09:57:01.586Z,10.60
2019-02-20T09:58:06.724Z,11.65
2019-02-20T09:59:11.860Z,10.43
2019-02-20T10:00:16.976Z,11.28
2019-02-20T10:01:22.104Z,10.53
2019-02-20T10:02:27.292Z,12.60
2019-02-20T10:03:32.468Z,10.58
2019-02-20T10:04:37.592Z,10.15
2019-02-20T10:05:42.707Z,10.40
2019-02-20T10:06:47.899Z,10.30
2019-02-20T10:07:52.982Z,10.03
2019-02-20T10:08:58.049Z,9.70
2019-02-20T10:10:03.236Z,11.05
2019-02-20T10:11:08.402Z,11.35
2019-02-20T10:12:13.432Z,9.35
2019-02-20T10:13:18.536Z,10.38
2019-02-20T10:14:23.614Z,9.40
2019-02-20T10:15:29.072Z,11.00
2019-02-20T10:16:34.279Z,10.40
2019-02-20T10:17:39.481Z,12.05
2019-02-20T10:18:44.645Z,12.05
2019-02-20T10:19:50.897Z,9.88
2019-02-20T10:20:56.232Z,11.68
2019-02-20T10:22:01.393Z,12.07
2019-02-20T10:23:06.590Z,13.30
2019-02-20T10:24:11.895Z,12.70
2019-02-20T10:25:16.994Z,11.48
2019-02-20T10:26:22.050Z,12.55
2019-02-20T10:27:27.145Z,11.45
2019-02-20T10:28:32.213Z,12.28
2019-02-20T10:29:37.243Z,11.73
2019-02-20T10:30:42.248Z,13.65
2019-02-20T10:31:50.035Z,13.18
2019-02-20T10:32:55.068Z,14.18
2019-02-20T10:34:00.104Z,14.00
2019-02-20T10:35:05.752Z,14.50
2019-02-20T10:36:10.871Z,12.60
2019-02-20T10:37:16.001Z,13.25
2019-02-20T10:38:21.169Z,11.80
2019-02-20T10:39:26.264Z,11.83
2019-02-20T10:40:31.482Z,12.80
2019-02-20T10:41:36.878Z,12.18
2019-02-20T10:42:41.990Z,13.28
2019-02-20T10:43:47.041Z,12.73
2019-02-20T10:44:52.183Z,10.50
2019-02-20T10:45:57.295Z,13.55
2019-02-20T10:47:02.668Z,12.85
2019-02-20T10:48:07.873Z,13.62
2019-02-20T10:49:13.045Z,12.23
2019-02-20T10:50:18.153Z,12.43
2019-02-20T10:51:23.273Z,13.10
2019-02-20T10:52:28.324Z,11.75
2019-02-20T10:53:33.377Z,13.68
2019-02-20T10:54:38.548Z,13.53
2019-02-20T10:55:43.688Z,13.90
2019-02-20T10:56:48.702Z,12.93
2019-02-20T10:57:53.793Z,14.20
2019-02-20T10:58:58.921Z,12.00
2019-02-20T11:00:07.080Z,9.35
2019-02-20T11:01:13.813Z,9.23
2019-02-20T11:02:18.989Z,10.50
2019-02-20T11:03:24.102Z,10.53
2019-02-20T11:04:30.831Z,11.15
2019-02-20T11:05:36.220Z,12.37
2019-02-20T11:06:41.388Z,12.03
2019-02-20T11:07:46.577Z,12.00
2019-02-20T11:08:51.786Z,13.30
2019-02-20T11:09:56.902Z,12.18
2019-02-20T11:11:02.009Z,11.80
2019-02-20T11:12:08.232Z,11.40
2019-02-20T11:13:13.571Z,12.95
2019-02-20T11:14:18.762Z,11.53
2019-02-20T11:15:23.822Z,11.60
2019-02-20T11:16:29.046Z,11.53
2019-02-20T11:17:34.147Z,11.57
2019-02-20T11:18:39.245Z,11.70
2019-02-20T11:19:44.390Z,11.70
2019-02-20T11:20:49.454Z,11.50
2019-02-20T11:21:54.557Z,12.58
2019-02-20T11:22:59.585Z,12.33
2019-02-20T11:24:04.696Z,11.20
2019-02-20T11:25:12.926Z,10.80
2019-02-20T11:26:18.750Z,11.45
2019-02-20T11:27:24.003Z,10.53
2019-02-20T11:28:29.177Z,11.45
2019-02-20T11:29:34.315Z,10.82
2019-02-20T11:30:39.477Z,10.70
2019-02-20T11:31:44.596Z,10.88
2019-02-20T11:32:49.655Z,10.78
2019-02-20T11:33:54.769Z,11.28
2019-02-20T11:34:59.870Z,11.00
2019-02-20T11:36:05.020Z,10.60
2019-02-20T11:37:10.219Z,10.65
2019-02-20T11:38:16.487Z,11.10
2019-02-20T11:39:21.611Z,10.85
2019-02-20T11:40:26.680Z,9.78
2019-02-20T11:41:31.893Z,10.48
2019-02-20T11:42:37.013Z,9.85
2019-02-20T11:43:42.127Z,9.53
2019-02-20T11:44:47.258Z,9.55
2019-02-20T11:45:52.384Z,9.80
2019-02-20T11:46:57.399Z,9.85
2019-02-20T11:48:02.532Z,10.45
2019-02-20T11:49:07.642Z,10.20
2019-02-20T11:50:12.856Z,8.30
2019-02-20T11:51:18.008Z,9.15
2019-02-20T11:52:23.144Z,9.75
2019-02-20T11:53:36.833Z,8.30
2019-02-20T11:54:35.067Z,7.47
2019-02-20T11:55:51.441Z,6.67
2019-02-20T11:57:08.476Z,8.10
2019-02-20T11:58:25.048Z,7.70
2019-02-20T11:59:41.564Z,8.03
2019-02-20T12:00:58.261Z,7.28
2019-02-20T12:02:15.889Z,7.75
2019-02-20T12:03:34.363Z,8.10
2019-02-20T12:04:51.596Z,8.40
2019-02-20T12:06:08.094Z,9.53
2019-02-20T12:07:25.442Z,8.13
2019-02-20T12:08:30.582Z,8.60
2019-02-20T12:09:35.694Z,7.58
2019-02-20T12:10:41.005Z,8.33
2019-02-20T12:11:46.137Z,8.23
2019-02-20T12:12:51.278Z,8.33
2019-02-20T12:13:57.467Z,7.35
2019-02-20T12:15:03.666Z,7.53
2019-02-20T12:16:08.833Z,8.50
2019-02-20T12:17:13.944Z,10.50
2019-02-20T12:18:19.176Z,11.68
2019-02-20T12:19:24.286Z,11.28
2019-02-20T12:20:29.417Z,12.35
2019-02-20T12:21:37.377Z,12.28
2019-02-20T12:22:42.596Z,11.48
2019-02-20T12:23:47.794Z,13.25
2019-02-20T12:24:54.784Z,13.25
2019-02-20T12:25:59.686Z,13.05
2019-02-20T12:27:04.797Z,12.68
2019-02-20T12:28:09.906Z,12.05
2019-02-20T12:29:15.049Z,12.20
2019-02-20T12:30:20.176Z,11.95
2019-02-20T12:31:25.299Z,11.90
2019-02-20T12:32:30.973Z,11.65
2019-02-20T12:33:36.229Z,12.75
2019-02-20T12:34:41.372Z,11.95
2019-02-20T12:35:46.480Z,11.50
2019-02-20T12:36:51.607Z,9.28
2019-02-20T12:37:56.653Z,10.58
2019-02-20T12:39:01.773Z,8.90
2019-02-20T12:40:08.541Z,8.55
2019-02-20T12:41:13.668Z,9.05
2019-02-20T12:42:18.774Z,9.03
2019-02-20T12:43:23.929Z,9.40
2019-02-20T12:44:29.042Z,8.70
2019-02-20T12:45:34.209Z,8.63
2019-02-20T12:46:39.365Z,9.13
2019-02-20T12:47:44.405Z,8.73
2019-02-20T12:48:49.462Z,9.03
2019-02-20T12:49:57.605Z,9.40
2019-02-20T12:51:02.753Z,9.35
2019-02-20T12:52:07.832Z,9.78
2019-02-20T12:53:13.002Z,9.80
2019-02-20T12:54:18.209Z,9.90
2019-02-20T12:55:23.366Z,9.80
2019-02-20T12:56:28.553Z,10.20
2019-02-20T12:57:34.764Z,10.45
2019-02-20T12:58:39.942Z,9.53
2019-02-20T12:59:45.151Z,10.00
2019-02-20T13:00:50.252Z,10.03
2019-02-20T13:01:55.296Z,10.35
2019-02-20T13:03:00.473Z,9.75
2019-02-20T13:04:05.591Z,9.30
2019-02-20T13:05:10.864Z,9.05
2019-02-20T13:06:16.037Z,9.45
2019-02-20T13:07:21.144Z,9.68
2019-02-20T13:08:26.271Z,9.43
2019-02-20T13:09:33.180Z,9.30
2019-02-20T13:10:38.462Z,8.30
2019-02-20T13:11:43.593Z,8.75
2019-02-20T13:12:49.796Z,9.00
2019-02-20T13:13:54.918Z,10.03
2019-02-20T13:15:00.033Z,8.43
2019-02-20T13:16:09.578Z,9.20
2019-02-20T13:17:12.105Z,8.90
2019-02-20T13:18:17.314Z,8.88
2019-02-20T13:19:22.581Z,9.48
2019-02-20T13:20:27.758Z,9.05
2019-02-20T13:21:32.802Z,8.90
2019-02-20T13:22:37.869Z,9.00
2019-02-20T13:23:43.015Z,8.83
2019-02-20T13:24:48.148Z,8.80
2019-02-20T13:25:53.282Z,9.70
2019-02-20T13:26:58.399Z,8.53
2019-02-20T13:28:03.545Z,8.90
2019-02-20T13:29:08.750Z,8.33
2019-02-20T13:30:13.925Z,9.00
2019-02-20T13:31:19.179Z,8.05
2019-02-20T13:32:24.330Z,9.05
2019-02-20T13:33:29.444Z,8.70
2019-02-20T13:34:34.571Z,8.35
2019-02-20T13:35:39.710Z,9.18
2019-02-20T13:36:44.789Z,10.35
2019-02-20T13:37:49.838Z,10.35
2019-02-20T13:38:54.956Z,9.40
2019-02-20T13:40:00.216Z,8.23
2019-02-20T13:41:05.466Z,8.60
2019-02-20T13:42:10.598Z,8.88
2019-02-20T13:43:16.086Z,8.85
2019-02-20T13:44:21.512Z,8.25
2019-02-20T13:45:26.664Z,8.38
2019-02-20T13:46:31.760Z,8.80
2019-02-20T13:47:36.904Z,7.95
2019-02-20T13:48:41.929Z,8.30
2019-02-20T13:49:47.053Z,8.80
2019-02-20T13:50:52.304Z,10.35
2019-02-20T13:51:57.465Z,7.95
2019-02-20T13:53:02.673Z,8.33
2019-02-20T13:54:08.914Z,8.85
2019-02-20T13:55:14.007Z,8.25
2019-02-20T13:56:19.135Z,8.68
2019-02-20T13:57:24.391Z,8.28
2019-02-20T13:58:29.608Z,8.63
2019-02-20T13:59:34.697Z,8.45
2019-02-20T14:00:40.933Z,8.88
2019-02-20T14:01:46.029Z,7.80
2019-02-20T14:02:51.510Z,7.47
2019-02-20T14:03:56.928Z,7.70
2019-02-20T14:05:02.110Z,7.78
2019-02-20T14:06:07.255Z,7.50
2019-02-20T14:07:12.484Z,7.47
2019-02-20T14:08:17.609Z,7.72
2019-02-20T14:09:22.763Z,7.22
2019-02-20T14:10:27.924Z,8.05
2019-02-20T14:11:33.058Z,6.42
2019-02-20T14:12:38.165Z,6.28
2019-02-20T14:13:43.301Z,7.62
2019-02-20T14:14:48.469Z,7.17
2019-02-20T14:15:53.546Z,8.48
2019-02-20T14:16:58.657Z,8.05
2019-02-20T14:18:03.861Z,7.28
2019-02-20T14:19:10.110Z,8.23
2019-02-20T14:20:15.303Z,7.28
2019-02-20T14:21:20.369Z,8.03
2019-02-20T14:22:25.765Z,6.53
2019-02-20T14:23:31.036Z,7.42
2019-02-20T14:24:36.136Z,7.03
2019-02-20T14:25:44.363Z,7.37
2019-02-20T14:26:49.153Z,7.42
2019-02-20T14:27:54.341Z,7.08
2019-02-20T14:28:59.561Z,7.30
2019-02-20T14:30:04.910Z,7.10
2019-02-20T14:31:11.120Z,7.65
2019-02-20T14:32:16.198Z,6.70
2019-02-20T14:33:21.420Z,6.70
2019-02-20T14:34:26.612Z,7.28
2019-02-20T14:35:31.745Z,6.60
2019-02-20T14:36:36.880Z,6.70
2019-02-20T14:37:42.366Z,6.90
2019-02-20T14:38:47.556Z,6.42
2019-02-20T14:39:52.689Z,6.08
2019-02-20T14:40:57.788Z,7.33
2019-02-20T14:42:03.191Z,6.28
2019-02-20T14:43:08.540Z,7.50
2019-02-20T14:44:13.722Z,6.65
2019-02-20T14:45:18.890Z,6.62
2019-02-20T14:46:24.070Z,6.28
2019-02-20T14:47:29.192Z,7.05
2019-02-20T14:48:34.361Z,6.17
2019-02-20T14:49:39.489Z,6.00
2019-02-20T14:50:44.596Z,6.10
2019-02-20T14:51:49.739Z,6.50
2019-02-20T14:52:54.894Z,6.55
2019-02-20T14:54:00.128Z,6.05
2019-02-20T14:55:05.297Z,6.40
2019-02-20T14:56:10.534Z,6.85
2019-02-20T14:57:19.674Z,6.50
2019-02-20T14:58:22.578Z,5.87
2019-02-20T14:59:27.745Z,6.15
2019-02-20T15:00:32.862Z,6.33
2019-02-20T15:01:38.462Z,6.53
2019-02-20T15:02:44.083Z,6.37
2019-02-20T15:03:49.253Z,6.28
2019-02-20T15:04:54.390Z,6.03
2019-02-20T15:05:59.531Z,6.08
2019-02-20T15:07:04.713Z,6.33
2019-02-20T15:08:09.955Z,6.80
2019-02-20T15:09:15.077Z,6.58
2019-02-20T15:10:20.249Z,5.92
2019-02-20T15:11:25.450Z,6.10
2019-02-20T15:12:31.632Z,6.08
2019-02-20T15:13:36.804Z,6.22